sensor_id;sensor_type;location;lat;lon;timestamp;pressure;altitude;pressure_sealevel;temperature;humidity
39223;BME280;24936;46.328;11.026;2023-02-02T00:00:44;94572.13;;;-0.15;41.94
39223;BME280;24936;46.328;11.026;2023-02-02T00:03:10;94570.34;;;0.22;40.43
39223;BME280;24936;46.328;11.026;2023-02-02T00:05:35;94569.94;;;-0.05;41.57
39223;BME280;24936;46.328;11.026;2023-02-02T00:08:01;94568.81;;;-0.36;42.71
39223;BME280;24936;46.328;11.026;2023-02-02T00:10:27;94553.38;;;-0.20;45.09
39223;BME280;24936;46.328;11.026;2023-02-02T00:12:52;94570.72;;;-1.18;48.92
39223;BME280;24936;46.328;11.026;2023-02-02T00:15:18;94575.06;;;0.14;40.95
39223;BME280;24936;46.328;11.026;2023-02-02T00:17:44;94583.00;;;-0.45;44.27
39223;BME280;24936;46.328;11.026;2023-02-02T00:20:09;94574.63;;;-1.09;48.02
39223;BME280;24936;46.328;11.026;2023-02-02T00:22:35;94553.00;;;-0.87;45.47
39223;BME280;24936;46.328;11.026;2023-02-02T00:25:00;94577.38;;;-1.74;53.37
39223;BME280;24936;46.328;11.026;2023-02-02T00:27:26;94574.00;;;-1.14;44.88
39223;BME280;24936;46.328;11.026;2023-02-02T00:29:51;94560.00;;;-1.29;47.28
39223;BME280;24936;46.328;11.026;2023-02-02T00:32:18;94559.53;;;-1.60;51.64
39223;BME280;24936;46.328;11.026;2023-02-02T00:34:44;94582.03;;;-1.62;48.57
39223;BME280;24936;46.328;11.026;2023-02-02T00:37:09;94580.06;;;-1.15;45.73
39223;BME280;24936;46.328;11.026;2023-02-02T00:39:35;94576.69;;;-1.17;46.18
39223;BME280;24936;46.328;11.026;2023-02-02T00:42:00;94567.16;;;-1.77;49.82
39223;BME280;24936;46.328;11.026;2023-02-02T00:44:26;94579.63;;;-2.09;52.61
39223;BME280;24936;46.328;11.026;2023-02-02T00:47:09;94580.44;;;-2.09;51.96
39223;BME280;24936;46.328;11.026;2023-02-02T00:49:35;94578.53;;;-1.61;48.52
39223;BME280;24936;46.328;11.026;2023-02-02T00:52:00;94575.53;;;-1.72;49.59
39223;BME280;24936;46.328;11.026;2023-02-02T00:54:26;94598.06;;;-2.19;52.53
39223;BME280;24936;46.328;11.026;2023-02-02T00:56:52;94591.19;;;-1.75;49.42
39223;BME280;24936;46.328;11.026;2023-02-02T00:59:17;94581.72;;;-2.41;55.41
39223;BME280;24936;46.328;11.026;2023-02-02T01:01:43;94588.34;;;-2.12;54.19
39223;BME280;24936;46.328;11.026;2023-02-02T01:04:08;94598.22;;;-2.23;51.11
39223;BME280;24936;46.328;11.026;2023-02-02T01:06:33;94591.78;;;-0.87;46.09
39223;BME280;24936;46.328;11.026;2023-02-02T01:08:59;94595.94;;;-1.45;48.79
39223;BME280;24936;46.328;11.026;2023-02-02T01:11:24;94596.47;;;-2.23;54.19
39223;BME280;24936;46.328;11.026;2023-02-02T01:13:50;94598.09;;;-1.98;51.44
39223;BME280;24936;46.328;11.026;2023-02-02T01:16:15;94599.00;;;-2.21;52.55
39223;BME280;24936;46.328;11.026;2023-02-02T01:18:41;94594.13;;;-2.07;51.67
39223;BME280;24936;46.328;11.026;2023-02-02T01:21:09;94589.00;;;-1.23;46.99
39223;BME280;24936;46.328;11.026;2023-02-02T01:23:35;94584.13;;;-2.15;54.02
39223;BME280;24936;46.328;11.026;2023-02-02T01:26:04;94580.28;;;-2.04;51.67
39223;BME280;24936;46.328;11.026;2023-02-02T01:28:30;94590.59;;;-2.96;57.63
39223;BME280;24936;46.328;11.026;2023-02-02T01:30:56;94588.56;;;-1.96;50.59
39223;BME280;24936;46.328;11.026;2023-02-02T01:33:22;94580.09;;;-2.22;53.87
39223;BME280;24936;46.328;11.026;2023-02-02T01:35:50;94577.41;;;-2.87;57.97
39223;BME280;24936;46.328;11.026;2023-02-02T01:38:16;94590.06;;;-3.30;57.54
39223;BME280;24936;46.328;11.026;2023-02-02T01:40:54;94585.34;;;-2.69;53.00
39223;BME280;24936;46.328;11.026;2023-02-02T01:43:27;94566.22;;;-2.64;53.08
39223;BME280;24936;46.328;11.026;2023-02-02T01:45:55;94586.28;;;-3.19;58.44
39223;BME280;24936;46.328;11.026;2023-02-02T01:48:26;94578.50;;;-2.94;55.88
39223;BME280;24936;46.328;11.026;2023-02-02T01:50:56;94575.44;;;-2.34;51.26
39223;BME280;24936;46.328;11.026;2023-02-02T01:53:22;94572.25;;;-2.41;53.34
39223;BME280;24936;46.328;11.026;2023-02-02T01:55:48;94562.59;;;-3.29;58.94
39223;BME280;24936;46.328;11.026;2023-02-02T01:58:19;94578.25;;;-3.35;56.69
39223;BME280;24936;46.328;11.026;2023-02-02T02:00:46;94575.44;;;-2.34;51.06
39223;BME280;24936;46.328;11.026;2023-02-02T02:03:14;94567.13;;;-2.88;57.22
39223;BME280;24936;46.328;11.026;2023-02-02T02:05:47;94572.44;;;-3.66;61.32
39223;BME280;24936;46.328;11.026;2023-02-02T02:08:18;94559.38;;;-2.87;54.69
39223;BME280;24936;46.328;11.026;2023-02-02T02:10:44;94554.63;;;-2.52;53.06
39223;BME280;24936;46.328;11.026;2023-02-02T02:13:11;94549.34;;;-2.04;50.54
39223;BME280;24936;46.328;11.026;2023-02-02T02:15:40;94556.78;;;-3.11;58.14
39223;BME280;24936;46.328;11.026;2023-02-02T02:18:32;94557.75;;;-3.39;58.86
39223;BME280;24936;46.328;11.026;2023-02-02T02:32:29;94572.59;;;-3.71;59.89
39223;BME280;24936;46.328;11.026;2023-02-02T02:35:01;94560.88;;;-3.54;58.62
39223;BME280;24936;46.328;11.026;2023-02-02T02:37:38;94562.38;;;-2.75;53.55
39223;BME280;24936;46.328;11.026;2023-02-02T02:40:26;94570.06;;;-3.21;56.25
39223;BME280;24936;46.328;11.026;2023-02-02T02:42:57;94565.84;;;-3.24;56.09
39223;BME280;24936;46.328;11.026;2023-02-02T02:45:25;94556.19;;;-2.71;52.88
39223;BME280;24936;46.328;11.026;2023-02-02T02:47:52;94548.75;;;-3.01;57.44
39223;BME280;24936;46.328;11.026;2023-02-02T02:50:18;94545.75;;;-3.63;61.23
39223;BME280;24936;46.328;11.026;2023-02-02T02:52:48;94534.50;;;-3.61;58.90
39223;BME280;24936;46.328;11.026;2023-02-02T02:55:15;94533.38;;;-3.77;62.07
39223;BME280;24936;46.328;11.026;2023-02-02T02:58:06;94553.22;;;-4.08;62.68
39223;BME280;24936;46.328;11.026;2023-02-02T03:00:41;94558.56;;;-2.65;53.03
39223;BME280;24936;46.328;11.026;2023-02-02T03:10:45;94560.75;;;-3.51;60.45
39223;BME280;24936;46.328;11.026;2023-02-02T03:13:12;94560.72;;;-3.75;61.02
39223;BME280;24936;46.328;11.026;2023-02-02T03:15:43;94556.66;;;-3.82;60.94
39223;BME280;24936;46.328;11.026;2023-02-02T03:18:13;94551.88;;;-3.67;60.50
39223;BME280;24936;46.328;11.026;2023-02-02T03:20:39;94565.78;;;-3.72;61.47
39223;BME280;24936;46.328;11.026;2023-02-02T03:23:06;94566.44;;;-3.66;59.94
39223;BME280;24936;46.328;11.026;2023-02-02T03:25:31;94550.56;;;-3.54;58.55
39223;BME280;24936;46.328;11.026;2023-02-02T03:27:57;94559.09;;;-3.77;59.73
39223;BME280;24936;46.328;11.026;2023-02-02T03:30:22;94563.28;;;-3.75;61.63
39223;BME280;24936;46.328;11.026;2023-02-02T03:32:48;94566.59;;;-3.46;58.74
39223;BME280;24936;46.328;11.026;2023-02-02T03:35:14;94567.84;;;-3.83;60.93
39223;BME280;24936;46.328;11.026;2023-02-02T03:37:40;94562.53;;;-4.04;63.64
39223;BME280;24936;46.328;11.026;2023-02-02T03:40:06;94571.06;;;-4.03;61.11
39223;BME280;24936;46.328;11.026;2023-02-02T03:42:31;94559.63;;;-3.94;61.11
39223;BME280;24936;46.328;11.026;2023-02-02T03:44:56;94561.94;;;-4.12;63.25
39223;BME280;24936;46.328;11.026;2023-02-02T03:47:22;94550.44;;;-3.49;58.89
39223;BME280;24936;46.328;11.026;2023-02-02T03:53:25;94559.34;;;-4.39;64.62
39223;BME280;24936;46.328;11.026;2023-02-02T04:05:43;94556.25;;;-3.95;61.69
39223;BME280;24936;46.328;11.026;2023-02-02T04:08:08;94566.03;;;-4.06;63.47
39223;BME280;24936;46.328;11.026;2023-02-02T04:10:33;94561.34;;;-3.43;56.64
39223;BME280;24936;46.328;11.026;2023-02-02T04:12:59;94569.81;;;-3.64;61.68
39223;BME280;24936;46.328;11.026;2023-02-02T04:15:24;94569.72;;;-3.88;62.25
39223;BME280;24936;46.328;11.026;2023-02-02T04:17:50;94553.97;;;-2.81;54.28
39223;BME280;24936;46.328;11.026;2023-02-02T04:20:15;94560.63;;;-3.72;61.85
39223;BME280;24936;46.328;11.026;2023-02-02T04:22:41;94567.44;;;-3.71;59.24
39223;BME280;24936;46.328;11.026;2023-02-02T04:25:06;94557.25;;;-3.48;58.17
39223;BME280;24936;46.328;11.026;2023-02-02T04:27:32;94557.75;;;-3.39;59.22
39223;BME280;24936;46.328;11.026;2023-02-02T04:29:58;94574.63;;;-3.06;55.92
39223;BME280;24936;46.328;11.026;2023-02-02T04:32:23;94579.50;;;-3.47;57.28
39223;BME280;24936;46.328;11.026;2023-02-02T04:34:48;94584.88;;;-3.28;58.38
39223;BME280;24936;46.328;11.026;2023-02-02T04:37:17;94580.41;;;-3.74;61.53
39223;BME280;24936;46.328;11.026;2023-02-02T04:39:42;94586.44;;;-3.75;60.86
39223;BME280;24936;46.328;11.026;2023-02-02T04:42:08;94585.34;;;-3.94;61.54
39223;BME280;24936;46.328;11.026;2023-02-02T04:44:33;94584.91;;;-3.55;58.71
39223;BME280;24936;46.328;11.026;2023-02-02T04:46:58;94589.94;;;-3.50;57.83
39223;BME280;24936;46.328;11.026;2023-02-02T04:49:24;94597.63;;;-3.76;59.45
39223;BME280;24936;46.328;11.026;2023-02-02T04:51:49;94599.19;;;-3.45;58.13
39223;BME280;24936;46.328;11.026;2023-02-02T04:54:15;94587.47;;;-3.54;59.38
39223;BME280;24936;46.328;11.026;2023-02-02T04:56:40;94597.81;;;-4.09;62.56
39223;BME280;24936;46.328;11.026;2023-02-02T04:59:06;94598.59;;;-3.80;59.81
39223;BME280;24936;46.328;11.026;2023-02-02T05:01:31;94609.56;;;-3.48;57.06
39223;BME280;24936;46.328;11.026;2023-02-02T05:03:56;94612.94;;;-3.46;57.05
39223;BME280;24936;46.328;11.026;2023-02-02T05:06:22;94605.41;;;-3.01;54.98
39223;BME280;24936;46.328;11.026;2023-02-02T05:08:48;94594.13;;;-2.51;51.99
39223;BME280;24936;46.328;11.026;2023-02-02T05:11:16;94583.94;;;-3.02;54.68
39223;BME280;24936;46.328;11.026;2023-02-02T05:13:47;94590.44;;;-3.15;55.47
39223;BME280;24936;46.328;11.026;2023-02-02T05:16:13;94605.78;;;-3.12;56.39
39223;BME280;24936;46.328;11.026;2023-02-02T05:18:47;94600.44;;;-3.31;56.27
39223;BME280;24936;46.328;11.026;2023-02-02T05:21:12;94603.25;;;-3.64;59.22
39223;BME280;24936;46.328;11.026;2023-02-02T05:23:38;94598.19;;;-3.67;58.67
39223;BME280;24936;46.328;11.026;2023-02-02T05:26:03;94599.09;;;-3.95;60.69
39223;BME280;24936;46.328;11.026;2023-02-02T05:28:29;94601.88;;;-2.99;54.93
39223;BME280;24936;46.328;11.026;2023-02-02T05:30:54;94610.72;;;-2.82;54.60
39223;BME280;24936;46.328;11.026;2023-02-02T05:33:19;94611.13;;;-3.69;60.22
39223;BME280;24936;46.328;11.026;2023-02-02T05:35:46;94617.00;;;-4.19;63.33
39223;BME280;24936;46.328;11.026;2023-02-02T05:38:11;94617.91;;;-3.93;60.37
39223;BME280;24936;46.328;11.026;2023-02-02T05:40:37;94602.13;;;-4.09;61.02
39223;BME280;24936;46.328;11.026;2023-02-02T05:43:03;94610.91;;;-3.90;59.49
39223;BME280;24936;46.328;11.026;2023-02-02T05:45:28;94598.31;;;-3.71;58.59
39223;BME280;24936;46.328;11.026;2023-02-02T05:47:53;94609.31;;;-3.92;60.19
39223;BME280;24936;46.328;11.026;2023-02-02T05:50:20;94622.69;;;-4.38;63.58
39223;BME280;24936;46.328;11.026;2023-02-02T05:52:45;94618.88;;;-4.53;63.34
39223;BME280;24936;46.328;11.026;2023-02-02T05:55:11;94632.03;;;-4.07;60.25
39223;BME280;24936;46.328;11.026;2023-02-02T05:57:37;94628.97;;;-4.18;61.52
39223;BME280;24936;46.328;11.026;2023-02-02T06:00:04;94631.72;;;-4.24;61.73
39223;BME280;24936;46.328;11.026;2023-02-02T06:02:29;94649.41;;;-3.87;60.49
39223;BME280;24936;46.328;11.026;2023-02-02T06:04:55;94650.16;;;-3.83;59.70
39223;BME280;24936;46.328;11.026;2023-02-02T06:07:20;94660.41;;;-4.10;61.39
39223;BME280;24936;46.328;11.026;2023-02-02T06:09:45;94646.31;;;-3.70;59.13
39223;BME280;24936;46.328;11.026;2023-02-02T06:12:11;94642.06;;;-3.45;57.32
39223;BME280;24936;46.328;11.026;2023-02-02T06:14:36;94638.69;;;-3.46;57.24
39223;BME280;24936;46.328;11.026;2023-02-02T06:17:02;94630.16;;;-3.48;55.76
39223;BME280;24936;46.328;11.026;2023-02-02T06:19:27;94634.22;;;-3.67;60.60
39223;BME280;24936;46.328;11.026;2023-02-02T06:21:52;94651.31;;;-4.20;62.67
39223;BME280;24936;46.328;11.026;2023-02-02T06:24:18;94635.41;;;-3.00;56.03
39223;BME280;24936;46.328;11.026;2023-02-02T06:26:43;94626.38;;;-3.38;57.97
39223;BME280;24936;46.328;11.026;2023-02-02T06:29:12;94646.59;;;-3.79;60.74
39223;BME280;24936;46.328;11.026;2023-02-02T06:31:38;94649.47;;;-3.61;57.79
39223;BME280;24936;46.328;11.026;2023-02-02T06:34:04;94642.53;;;-2.83;54.46
39223;BME280;24936;46.328;11.026;2023-02-02T06:36:29;94652.63;;;-3.53;58.29
39223;BME280;24936;46.328;11.026;2023-02-02T06:38:56;94661.13;;;-3.76;60.21
39223;BME280;24936;46.328;11.026;2023-02-02T06:41:22;94665.47;;;-3.51;58.19
39223;BME280;24936;46.328;11.026;2023-02-02T06:43:48;94669.56;;;-4.00;62.13
39223;BME280;24936;46.328;11.026;2023-02-02T06:46:14;94669.44;;;-3.96;61.12
39223;BME280;24936;46.328;11.026;2023-02-02T06:48:40;94669.44;;;-3.96;60.86
39223;BME280;24936;46.328;11.026;2023-02-02T06:51:05;94674.81;;;-4.33;64.07
39223;BME280;24936;46.328;11.026;2023-02-02T06:53:31;94684.97;;;-4.00;61.27
39223;BME280;24936;46.328;11.026;2023-02-02T06:56:02;94690.34;;;-3.52;58.92
39223;BME280;24936;46.328;11.026;2023-02-02T06:58:29;94689.75;;;-3.87;61.64
39223;BME280;24936;46.328;11.026;2023-02-02T07:01:00;94691.19;;;-4.37;63.92
39223;BME280;24936;46.328;11.026;2023-02-02T07:03:28;94700.34;;;-4.56;66.54
39223;BME280;24936;46.328;11.026;2023-02-02T07:05:54;94703.38;;;-4.42;64.52
39223;BME280;24936;46.328;11.026;2023-02-02T07:08:19;94695.97;;;-4.24;64.71
39223;BME280;24936;46.328;11.026;2023-02-02T07:10:45;94699.47;;;-4.25;64.02
39223;BME280;24936;46.328;11.026;2023-02-02T07:13:11;94696.91;;;-4.55;66.15
39223;BME280;24936;46.328;11.026;2023-02-02T07:15:39;94706.56;;;-3.77;61.39
39223;BME280;24936;46.328;11.026;2023-02-02T07:18:05;94706.91;;;-3.61;59.47
39223;BME280;24936;46.328;11.026;2023-02-02T07:20:31;94705.34;;;-3.93;63.61
39223;BME280;24936;46.328;11.026;2023-02-02T07:22:57;94706.47;;;-4.02;62.89
39223;BME280;24936;46.328;11.026;2023-02-02T07:25:22;94704.09;;;-3.80;61.60
39223;BME280;24936;46.328;11.026;2023-02-02T07:27:52;94716.84;;;-3.48;60.54
39223;BME280;24936;46.328;11.026;2023-02-02T07:30:18;94716.84;;;-3.21;59.16
39223;BME280;24936;46.328;11.026;2023-02-02T07:32:47;94710.84;;;-3.49;61.19
39223;BME280;24936;46.328;11.026;2023-02-02T07:35:14;94700.38;;;-3.17;59.45
39223;BME280;24936;46.328;11.026;2023-02-02T07:37:39;94707.69;;;-3.30;60.76
39223;BME280;24936;46.328;11.026;2023-02-02T07:40:05;94715.94;;;-2.22;54.33
39223;BME280;24936;46.328;11.026;2023-02-02T07:42:31;94712.69;;;-2.04;52.56
39223;BME280;24936;46.328;11.026;2023-02-02T07:44:57;94706.59;;;-2.72;58.24
39223;BME280;24936;46.328;11.026;2023-02-02T07:47:23;94702.78;;;-2.62;58.13
39223;BME280;24936;46.328;11.026;2023-02-02T07:49:49;94697.75;;;-1.51;51.00
39223;BME280;24936;46.328;11.026;2023-02-02T07:52:14;94684.44;;;-1.85;52.56
39223;BME280;24936;46.328;11.026;2023-02-02T07:54:40;94693.66;;;-2.23;58.08
39223;BME280;24936;46.328;11.026;2023-02-02T07:57:07;94704.25;;;-2.09;55.09
39223;BME280;24936;46.328;11.026;2023-02-02T07:59:33;94708.41;;;-2.05;54.54
39223;BME280;24936;46.328;11.026;2023-02-02T08:01:58;94700.88;;;-1.43;53.16
39223;BME280;24936;46.328;11.026;2023-02-02T08:04:23;94705.16;;;-1.21;50.21
39223;BME280;24936;46.328;11.026;2023-02-02T08:06:49;94710.63;;;-1.29;52.22
39223;BME280;24936;46.328;11.026;2023-02-02T08:09:14;94703.38;;;-0.98;50.51
39223;BME280;24936;46.328;11.026;2023-02-02T08:11:40;94711.06;;;-0.97;49.81
39223;BME280;24936;46.328;11.026;2023-02-02T08:14:06;94710.28;;;-0.78;48.41
39223;BME280;24936;46.328;11.026;2023-02-02T08:16:33;94718.94;;;-0.39;46.94
39223;BME280;24936;46.328;11.026;2023-02-02T08:18:59;94707.88;;;-0.22;47.57
39223;BME280;24936;46.328;11.026;2023-02-02T08:21:24;94703.84;;;-0.09;47.54
39223;BME280;24936;46.328;11.026;2023-02-02T08:23:51;94716.94;;;-0.33;48.78
39223;BME280;24936;46.328;11.026;2023-02-02T08:26:21;94715.97;;;-0.30;47.39
39223;BME280;24936;46.328;11.026;2023-02-02T08:28:58;94712.97;;;-0.21;48.20
39223;BME280;24936;46.328;11.026;2023-02-02T08:31:29;94718.75;;;-0.35;48.22
39223;BME280;24936;46.328;11.026;2023-02-02T08:33:55;94707.66;;;0.02;47.22
39223;BME280;24936;46.328;11.026;2023-02-02T08:36:23;94694.84;;;0.18;46.72
39223;BME280;24936;46.328;11.026;2023-02-02T08:38:50;94705.84;;;0.23;45.75
39223;BME280;24936;46.328;11.026;2023-02-02T08:41:18;94713.13;;;0.34;45.83
39223;BME280;24936;46.328;11.026;2023-02-02T08:43:44;94710.31;;;0.38;46.41
39223;BME280;24936;46.328;11.026;2023-02-02T08:46:12;94700.00;;;0.73;43.10
39223;BME280;24936;46.328;11.026;2023-02-02T08:48:39;94699.94;;;0.75;44.03
39223;BME280;24936;46.328;11.026;2023-02-02T08:51:05;94703.25;;;0.77;44.23
39223;BME280;24936;46.328;11.026;2023-02-02T08:53:31;94710.66;;;0.67;43.60
39223;BME280;24936;46.328;11.026;2023-02-02T08:56:01;94711.38;;;1.06;46.59
39223;BME280;24936;46.328;11.026;2023-02-02T08:58:28;94700.41;;;1.18;47.73
39223;BME280;24936;46.328;11.026;2023-02-02T09:00:54;94698.91;;;2.45;45.00
39223;BME280;24936;46.328;11.026;2023-02-02T09:03:20;94712.41;;;4.45;40.16
39223;BME280;24936;46.328;11.026;2023-02-02T09:05:45;94690.91;;;5.88;37.64
39223;BME280;24936;46.328;11.026;2023-02-02T09:08:10;94685.78;;;6.87;34.94
39223;BME280;24936;46.328;11.026;2023-02-02T09:10:36;94695.81;;;7.04;34.52
39223;BME280;24936;46.328;11.026;2023-02-02T09:13:02;94681.72;;;7.54;34.31
39223;BME280;24936;46.328;11.026;2023-02-02T09:15:29;94685.31;;;9.32;30.89
39223;BME280;24936;46.328;11.026;2023-02-02T09:17:54;94676.31;;;10.60;31.53
39223;BME280;24936;46.328;11.026;2023-02-02T09:20:20;94700.91;;;9.45;30.67
39223;BME280;24936;46.328;11.026;2023-02-02T09:22:45;94703.94;;;10.45;27.93
39223;BME280;24936;46.328;11.026;2023-02-02T09:25:10;94699.56;;;10.55;28.14
39223;BME280;24936;46.328;11.026;2023-02-02T09:27:36;94692.44;;;11.65;27.59
39223;BME280;24936;46.328;11.026;2023-02-02T09:30:02;94689.28;;;11.12;30.01
39223;BME280;24936;46.328;11.026;2023-02-02T09:32:27;94692.41;;;10.05;31.42
39223;BME280;24936;46.328;11.026;2023-02-02T09:34:53;94688.88;;;10.47;30.60
39223;BME280;24936;46.328;11.026;2023-02-02T09:37:18;94694.50;;;10.83;31.60
39223;BME280;24936;46.328;11.026;2023-02-02T09:39:43;94685.25;;;11.18;30.38
39223;BME280;24936;46.328;11.026;2023-02-02T09:47:48;94675.72;;;13.52;25.27
39223;BME280;24936;46.328;11.026;2023-02-02T09:53:01;94689.47;;;14.61;25.29
39223;BME280;24936;46.328;11.026;2023-02-02T09:55:35;94688.13;;;14.99;22.01
39223;BME280;24936;46.328;11.026;2023-02-02T09:58:31;94686.25;;;14.41;24.12
39223;BME280;24936;46.328;11.026;2023-02-02T10:01:13;94688.06;;;15.75;23.36
39223;BME280;24936;46.328;11.026;2023-02-02T10:04:13;94677.94;;;15.38;24.63
39223;BME280;24936;46.328;11.026;2023-02-02T10:06:44;94685.75;;;15.72;22.47
39223;BME280;24936;46.328;11.026;2023-02-02T10:09:38;94696.19;;;15.57;25.70
39223;BME280;24936;46.328;11.026;2023-02-02T10:15:11;94682.22;;;16.30;23.30
39223;BME280;24936;46.328;11.026;2023-02-02T10:22:45;94679.78;;;14.78;24.64
39223;BME280;24936;46.328;11.026;2023-02-02T10:25:13;94688.28;;;14.55;24.89
39223;BME280;24936;46.328;11.026;2023-02-02T10:27:40;94695.22;;;13.95;23.81
39223;BME280;24936;46.328;11.026;2023-02-02T10:30:25;94687.63;;;14.88;24.54
39223;BME280;24936;46.328;11.026;2023-02-02T10:33:06;94683.38;;;13.81;25.01
39223;BME280;24936;46.328;11.026;2023-02-02T10:35:43;94691.72;;;13.68;30.49
39223;BME280;24936;46.328;11.026;2023-02-02T10:41:01;94692.63;;;13.59;26.82
39223;BME280;24936;46.328;11.026;2023-02-02T10:46:41;94675.47;;;12.63;25.74
39223;BME280;24936;46.328;11.026;2023-02-02T10:51:40;94679.94;;;10.79;32.43
39223;BME280;24936;46.328;11.026;2023-02-02T10:54:24;94669.59;;;10.46;29.36
39223;BME280;24936;46.328;11.026;2023-02-02T10:56:54;94660.72;;;11.37;29.95
39223;BME280;24936;46.328;11.026;2023-02-02T10:59:35;94656.34;;;11.75;28.51
39223;BME280;24936;46.328;11.026;2023-02-02T11:02:09;94653.63;;;12.43;28.87
39223;BME280;24936;46.328;11.026;2023-02-02T11:04:35;94646.53;;;12.71;28.84
39223;BME280;24936;46.328;11.026;2023-02-02T11:07:18;94637.66;;;12.44;27.74
39223;BME280;24936;46.328;11.026;2023-02-02T11:09:45;94641.38;;;12.51;27.99
39223;BME280;24936;46.328;11.026;2023-02-02T11:12:33;94628.78;;;12.45;27.22
39223;BME280;24936;46.328;11.026;2023-02-02T11:15:07;94630.28;;;13.30;26.64
39223;BME280;24936;46.328;11.026;2023-02-02T11:17:34;94638.41;;;13.81;27.25
39223;BME280;24936;46.328;11.026;2023-02-02T11:20:00;94625.75;;;13.22;26.13
39223;BME280;24936;46.328;11.026;2023-02-02T11:22:33;94625.19;;;12.36;27.48
39223;BME280;24936;46.328;11.026;2023-02-02T11:25:02;94629.06;;;12.14;26.98
39223;BME280;24936;46.328;11.026;2023-02-02T11:27:39;94625.59;;;13.42;28.11
39223;BME280;24936;46.328;11.026;2023-02-02T11:32:37;94601.13;;;12.85;27.21
39223;BME280;24936;46.328;11.026;2023-02-02T11:37:32;94611.41;;;12.43;26.83
39223;BME280;24936;46.328;11.026;2023-02-02T11:40:25;94603.19;;;12.18;28.56
39223;BME280;24936;46.328;11.026;2023-02-02T11:42:53;94590.69;;;11.82;26.77
39223;BME280;24936;46.328;11.026;2023-02-02T11:45:29;94595.81;;;12.21;26.55
39223;BME280;24936;46.328;11.026;2023-02-02T11:48:06;94597.66;;;12.67;28.35
39223;BME280;24936;46.328;11.026;2023-02-02T11:50:37;94599.25;;;12.96;27.38
39223;BME280;24936;46.328;11.026;2023-02-02T11:53:02;94579.84;;;13.05;25.70
39223;BME280;24936;46.328;11.026;2023-02-02T11:55:30;94588.75;;;11.84;28.10
39223;BME280;24936;46.328;11.026;2023-02-02T11:58:20;94583.91;;;13.36;27.21
39223;BME280;24936;46.328;11.026;2023-02-02T12:00:51;94573.22;;;13.01;25.74
39223;BME280;24936;46.328;11.026;2023-02-02T12:05:52;94574.59;;;13.31;26.17
39223;BME280;24936;46.328;11.026;2023-02-02T12:08:18;94569.59;;;13.02;26.51
39223;BME280;24936;46.328;11.026;2023-02-02T12:13:30;94554.88;;;12.63;26.20
39223;BME280;24936;46.328;11.026;2023-02-02T12:16:16;94548.63;;;13.71;25.90
39223;BME280;24936;46.328;11.026;2023-02-02T12:19:32;94545.41;;;13.59;26.25
39223;BME280;24936;46.328;11.026;2023-02-02T12:24:45;94568.19;;;13.87;26.71
39223;BME280;24936;46.328;11.026;2023-02-02T12:27:31;94556.06;;;12.87;26.58
39223;BME280;24936;46.328;11.026;2023-02-02T12:38:08;94537.69;;;14.52;26.38
39223;BME280;24936;46.328;11.026;2023-02-02T12:41:02;94537.00;;;14.58;27.16
39223;BME280;24936;46.328;11.026;2023-02-02T12:46:16;94535.13;;;13.83;25.82
39223;BME280;24936;46.328;11.026;2023-02-02T12:48:55;94525.69;;;14.23;25.63
39223;BME280;24936;46.328;11.026;2023-02-02T12:51:45;94523.44;;;14.61;26.28
39223;BME280;24936;46.328;11.026;2023-02-02T13:02:26;94502.16;;;14.96;24.27
39223;BME280;24936;46.328;11.026;2023-02-02T13:07:38;94510.72;;;13.97;25.55
39223;BME280;24936;46.328;11.026;2023-02-02T13:11:19;94506.09;;;13.99;26.23
39223;BME280;24936;46.328;11.026;2023-02-02T13:13:25;94492.00;;;14.42;25.56
39223;BME280;24936;46.328;11.026;2023-02-02T13:16:02;94499.56;;;14.36;25.14
39223;BME280;24936;46.328;11.026;2023-02-02T13:18:51;94507.69;;;13.84;24.72
39223;BME280;24936;46.328;11.026;2023-02-02T13:21:20;94511.16;;;14.44;24.66
39223;BME280;24936;46.328;11.026;2023-02-02T13:23:51;94504.97;;;15.03;24.81
39223;BME280;24936;46.328;11.026;2023-02-02T13:26:21;94512.56;;;14.89;25.11
39223;BME280;24936;46.328;11.026;2023-02-02T13:28:56;94503.97;;;15.04;26.45
39223;BME280;24936;46.328;11.026;2023-02-02T13:31:58;94494.88;;;14.73;24.83
39223;BME280;24936;46.328;11.026;2023-02-02T13:34:22;94503.28;;;15.26;25.19
39223;BME280;24936;46.328;11.026;2023-02-02T13:40:50;94504.84;;;15.69;24.18
39223;BME280;24936;46.328;11.026;2023-02-02T13:45:40;94500.47;;;15.20;27.01
39223;BME280;24936;46.328;11.026;2023-02-02T13:48:19;94505.13;;;12.95;26.29
39223;BME280;24936;46.328;11.026;2023-02-02T13:56:59;94522.28;;;14.47;27.19
39223;BME280;24936;46.328;11.026;2023-02-02T14:02:46;94523.94;;;13.63;30.24
39223;BME280;24936;46.328;11.026;2023-02-02T14:05:33;94521.22;;;13.81;27.04
39223;BME280;24936;46.328;11.026;2023-02-02T14:08:00;94527.44;;;14.06;26.64
39223;BME280;24936;46.328;11.026;2023-02-02T14:10:36;94528.81;;;14.18;31.20
39223;BME280;24936;46.328;11.026;2023-02-02T14:15:58;94526.19;;;13.31;29.35
39223;BME280;24936;46.328;11.026;2023-02-02T14:23:55;94536.53;;;12.62;29.23
39223;BME280;24936;46.328;11.026;2023-02-02T14:26:57;94558.94;;;11.16;35.47
39223;BME280;24936;46.328;11.026;2023-02-02T14:34:58;94559.41;;;10.02;37.28
39223;BME280;24936;46.328;11.026;2023-02-02T14:43:14;94576.66;;;9.33;34.38
39223;BME280;24936;46.328;11.026;2023-02-02T14:48:37;94577.63;;;9.11;34.77
39223;BME280;24936;46.328;11.026;2023-02-02T14:51:12;94580.34;;;8.67;34.04
39223;BME280;24936;46.328;11.026;2023-02-02T14:53:39;94575.97;;;8.56;42.77
39223;BME280;24936;46.328;11.026;2023-02-02T14:56:13;94574.44;;;8.53;35.48
39223;BME280;24936;46.328;11.026;2023-02-02T15:03:48;94569.72;;;8.68;38.71
39223;BME280;24936;46.328;11.026;2023-02-02T15:17:32;94573.09;;;7.13;44.74
39223;BME280;24936;46.328;11.026;2023-02-02T15:20:15;94586.44;;;7.32;38.98
39223;BME280;24936;46.328;11.026;2023-02-02T15:25:56;94591.59;;;6.63;43.51
39223;BME280;24936;46.328;11.026;2023-02-02T15:28:50;94591.94;;;6.34;39.10
39223;BME280;24936;46.328;11.026;2023-02-02T15:31:40;94614.41;;;5.86;41.89